createdAt,value
2017-09-18T00:00:11.906Z,10.15
2017-09-18T00:00:52.496Z,10.18
2017-09-18T00:01:33.073Z,10.17
2017-09-18T00:02:13.665Z,10.15
2017-09-18T00:02:54.234Z,10.18
2017-09-18T00:03:34.814Z,10.07
2017-09-18T00:04:15.389Z,10.17
2017-09-18T00:04:55.975Z,10.17
2017-09-18T00:05:36.554Z,10.12
2017-09-18T00:06:17.135Z,10.17
2017-09-18T00:06:57.712Z,10.18
2017-09-18T00:07:38.299Z,10.2
2017-09-18T00:08:18.872Z,10.2
2017-09-18T00:08:59.456Z,10.2
2017-09-18T00:09:40.038Z,10.12
2017-09-18T00:10:20.605Z,10.14
2017-09-18T00:11:01.181Z,10.05
2017-09-18T00:11:41.768Z,10.08
2017-09-18T00:12:22.353Z,10.11
2017-09-18T00:13:02.937Z,10.12
2017-09-18T00:13:43.518Z,10.05
2017-09-18T00:14:24.090Z,10.11
2017-09-18T00:15:04.668Z,10.09
2017-09-18T00:15:45.250Z,10.14
2017-09-18T00:16:25.831Z,10.12
2017-09-18T00:17:06.414Z,10.07
2017-09-18T00:17:46.994Z,10.08
2017-09-18T00:18:27.585Z,10.08
2017-09-18T00:19:08.172Z,10.09
2017-09-18T00:19:48.742Z,10.09
2017-09-18T00:20:29.322Z,10.09
2017-09-18T00:21:09.903Z,10.04
2017-09-18T00:21:50.478Z,10.02
2017-09-18T00:22:31.062Z,9.94
2017-09-18T00:23:11.636Z,9.94
2017-09-18T00:23:52.214Z,9.91
2017-09-18T00:24:32.792Z,9.94
2017-09-18T00:25:13.376Z,10.01
2017-09-18T00:25:53.953Z,9.96
2017-09-18T00:26:34.534Z,10.02
2017-09-18T00:27:15.133Z,10.01
2017-09-18T00:27:55.706Z,9.94
2017-09-18T00:29:53.444Z,10.05
2017-09-18T00:30:34.021Z,10.04
2017-09-18T00:31:14.592Z,10.09
2017-09-18T01:10:32.545Z,9.78
2017-09-18T01:11:13.124Z,9.75
2017-09-18T01:11:53.710Z,9.79
2017-09-18T01:12:34.286Z,9.76
2017-09-18T01:13:14.866Z,9.6
2017-09-18T01:13:55.453Z,9.58
2017-09-18T01:14:36.035Z,9.61
2017-09-18T01:15:16.614Z,9.57
2017-09-18T01:15:57.196Z,9.5
2017-09-18T01:16:37.773Z,9.48
2017-09-18T01:17:18.350Z,9.43
2017-09-18T01:17:58.928Z,9.39
2017-09-18T01:18:39.509Z,9.39
2017-09-18T01:19:20.086Z,9.32
2017-09-18T01:20:00.664Z,9.21
2017-09-18T01:20:41.246Z,9.26
2017-09-18T01:21:21.812Z,9.18
2017-09-18T01:22:02.401Z,9.17
2017-09-18T01:22:42.979Z,9.23
2017-09-18T01:23:23.567Z,9.18
2017-09-18T01:24:04.147Z,9.17
2017-09-18T01:24:44.729Z,9.2
2017-09-18T01:25:25.307Z,9.18
2017-09-18T01:27:12.831Z,9.2
2017-09-18T01:27:53.415Z,9.17
2017-09-18T01:28:33.991Z,9.35
2017-09-18T01:29:14.571Z,9.31
2017-09-18T01:29:55.153Z,9.36
2017-09-18T01:30:35.731Z,9.36
2017-09-18T01:31:16.299Z,9.4
2017-09-18T01:31:56.874Z,9.33
2017-09-18T01:32:37.453Z,9.38
2017-09-18T01:33:18.025Z,9.26
2017-09-18T01:33:58.588Z,9.28
2017-09-18T01:34:39.146Z,9.39
2017-09-18T01:35:19.710Z,9.36
2017-09-18T01:36:14.802Z,9.36
2017-09-18T01:36:55.374Z,9.26
2017-09-18T01:37:35.956Z,9.24
2017-09-18T01:38:16.525Z,9.23
2017-09-18T01:38:57.101Z,9.26
2017-09-18T01:39:37.678Z,9.28
2017-09-18T01:40:18.253Z,9.29
2017-09-18T01:40:58.839Z,9.33
2017-09-18T01:41:39.413Z,9.39
2017-09-18T01:42:19.985Z,9.33
2017-09-18T01:43:00.562Z,9.32
2017-09-18T01:43:41.136Z,9.26
2017-09-18T01:44:21.715Z,9.39
2017-09-18T01:45:02.292Z,9.43
2017-09-18T01:45:42.870Z,9.4
2017-09-18T01:46:23.456Z,9.42
2017-09-18T01:47:04.026Z,9.32
2017-09-18T01:47:44.604Z,9.38
2017-09-18T01:48:25.189Z,9.32
2017-09-18T01:49:05.763Z,9.36
2017-09-18T01:49:46.345Z,9.26
2017-09-18T01:50:26.923Z,9.21
2017-09-18T01:51:07.499Z,9.18
2017-09-18T01:51:48.078Z,9.15
2017-09-18T01:52:44.673Z,9.11
2017-09-18T01:53:25.253Z,9.17
2017-09-18T01:54:05.829Z,9.08
2017-09-18T01:54:46.401Z,8.98
2017-09-18T01:55:26.985Z,9.04
2017-09-18T01:56:07.577Z,8.96
2017-09-18T01:56:48.146Z,8.96
2017-09-18T01:57:28.727Z,9.02
2017-09-18T01:58:09.303Z,8.91
2017-09-18T01:58:49.883Z,8.89
2017-09-18T01:59:30.462Z,8.86
2017-09-18T02:00:11.044Z,8.83
2017-09-18T02:00:51.614Z,8.77
2017-09-18T02:01:32.193Z,8.74
2017-09-18T02:02:12.767Z,8.76
2017-09-18T02:02:53.344Z,8.73
2017-09-18T02:03:33.923Z,8.76
2017-09-18T02:04:14.490Z,8.8
2017-09-18T02:04:55.069Z,8.77
2017-09-18T02:05:35.649Z,8.77
2017-09-18T02:06:16.232Z,8.8
2017-09-18T02:06:56.800Z,8.77
2017-09-18T02:07:37.373Z,8.79
2017-09-18T02:08:17.965Z,8.74
2017-09-18T02:08:58.531Z,8.76
2017-09-18T02:09:39.124Z,8.89
2017-09-18T02:10:19.714Z,8.86
2017-09-18T02:11:00.293Z,8.99
2017-09-18T02:11:40.874Z,8.95
2017-09-18T02:12:21.456Z,8.94
2017-09-18T02:13:02.037Z,8.96
2017-09-18T02:13:42.613Z,8.98
2017-09-18T02:14:23.190Z,9.01
2017-09-18T02:15:03.775Z,8.98
2017-09-18T02:15:44.352Z,8.96
2017-09-18T02:16:24.934Z,9.14
2017-09-18T02:17:05.504Z,9.14
2017-09-18T02:17:46.090Z,9.14
2017-09-18T02:18:26.669Z,9.21
2017-09-18T02:19:07.249Z,9.2
2017-09-18T02:19:47.860Z,9.18
2017-09-18T02:20:28.411Z,9.17
2017-09-18T02:21:08.994Z,9.21
2017-09-18T02:21:49.572Z,9.33
2017-09-18T02:22:30.151Z,9.26
2017-09-18T02:23:10.713Z,9.24
2017-09-18T02:23:51.288Z,9.17
2017-09-18T02:24:31.865Z,9.14
2017-09-18T02:25:12.445Z,9.14
2017-09-18T02:25:53.027Z,9.14
2017-09-18T02:26:33.606Z,8.99
2017-09-18T02:27:14.187Z,8.98
2017-09-18T02:27:54.765Z,8.99
2017-09-18T02:28:35.330Z,9.01
2017-09-18T02:29:15.914Z,8.99
2017-09-18T02:29:56.490Z,8.94
2017-09-18T02:30:37.072Z,8.91
2017-09-18T02:31:17.644Z,8.86
2017-09-18T02:32:13.215Z,8.87
2017-09-18T02:32:53.789Z,8.76
2017-09-18T02:33:34.362Z,8.79
2017-09-18T02:34:14.946Z,8.74
2017-09-18T02:34:55.526Z,8.76
2017-09-18T02:35:36.105Z,8.8
2017-09-18T02:36:16.683Z,8.81
2017-09-18T02:36:57.259Z,8.77
2017-09-18T02:37:37.836Z,8.91
2017-09-18T02:38:18.416Z,8.79
2017-09-18T02:38:58.990Z,8.86
2017-09-18T02:39:39.572Z,8.96
2017-09-18T02:40:20.148Z,8.96
2017-09-18T02:41:00.724Z,9.05
2017-09-18T02:41:41.324Z,9.02
2017-09-18T02:42:21.889Z,9.17
2017-09-18T02:43:02.472Z,9.08
2017-09-18T02:43:43.056Z,9.15
2017-09-18T02:44:23.623Z,9.21
2017-09-18T02:45:04.200Z,9.26
2017-09-18T02:45:44.766Z,9.21
2017-09-18T02:46:25.348Z,9.2
2017-09-18T02:47:05.924Z,9.23
2017-09-18T02:47:46.505Z,9.21
2017-09-18T02:48:27.066Z,9.33
2017-09-18T02:49:07.640Z,9.32
2017-09-18T02:51:05.376Z,9.28
2017-09-18T02:51:45.925Z,9.32
2017-09-18T02:52:26.501Z,9.32
2017-09-18T02:53:07.072Z,9.29
2017-09-18T02:53:47.647Z,9.21
2017-09-18T02:54:28.222Z,9.24
2017-09-18T02:55:08.796Z,9.2
2017-09-18T02:55:49.368Z,9.23
2017-09-18T02:56:29.943Z,9.17
2017-09-18T02:57:10.519Z,9.23
2017-09-18T02:57:51.087Z,9.1
2017-09-18T02:58:31.675Z,9.15
2017-09-18T02:59:12.254Z,9.13
2017-09-18T02:59:52.824Z,9.2
2017-09-18T03:00:33.402Z,9.23
2017-09-18T03:01:13.974Z,9.13
2017-09-18T03:01:54.554Z,9.21
2017-09-18T03:02:35.120Z,9.21
2017-09-18T03:03:32.663Z,9.17
2017-09-18T03:04:13.245Z,9.11
2017-09-18T03:04:53.822Z,9.13
2017-09-18T03:05:34.394Z,9.1
2017-09-18T03:06:14.965Z,8.99
2017-09-18T03:06:55.537Z,9.04
2017-09-18T03:07:36.115Z,9.01
2017-09-18T03:08:16.692Z,8.96
2017-09-18T03:08:57.274Z,8.96
2017-09-18T03:09:37.855Z,8.99
2017-09-18T03:10:19.131Z,8.99
2017-09-18T03:10:59.715Z,8.96
2017-09-18T03:11:40.304Z,8.99
2017-09-18T03:12:20.889Z,9.1
2017-09-18T03:13:01.468Z,9.02
2017-09-18T03:13:44.633Z,9.05
2017-09-18T03:14:25.207Z,9.1
2017-09-18T03:15:05.791Z,8.98
2017-09-18T03:15:46.405Z,9.05
2017-09-18T03:16:27.013Z,9.08
2017-09-18T03:17:07.595Z,9.14
2017-09-18T03:17:48.260Z,9.17
2017-09-18T03:18:28.993Z,9.14
2017-09-18T03:19:09.579Z,9.15
2017-09-18T03:19:50.151Z,9.23
2017-09-18T03:20:30.778Z,9.18
2017-09-18T03:21:11.381Z,9.26
2017-09-18T03:21:51.965Z,9.26
2017-09-18T03:22:32.619Z,9.18
2017-09-18T03:23:13.195Z,9.2
2017-09-18T03:23:53.817Z,9.15
2017-09-18T03:24:34.392Z,9.18
2017-09-18T03:25:15.132Z,9.2
2017-09-18T03:25:55.724Z,9.21
2017-09-18T03:26:36.311Z,9.2
2017-09-18T03:27:16.916Z,9.15
2017-09-18T03:27:57.606Z,9.23
2017-09-18T03:28:38.279Z,9.2
2017-09-18T03:29:18.959Z,9.18
2017-09-18T03:29:59.806Z,9.13
2017-09-18T03:30:40.412Z,9.21
2017-09-18T03:31:21.066Z,9.2
2017-09-18T03:32:01.678Z,9.23
2017-09-18T03:32:42.394Z,9.23
2017-09-18T03:33:22.969Z,9.33
2017-09-18T03:34:03.547Z,9.29
2017-09-18T03:34:44.124Z,9.15
2017-09-18T03:35:24.706Z,9.21
2017-09-18T03:36:05.442Z,9.24
2017-09-18T03:36:46.016Z,9.21
2017-09-18T03:37:26.679Z,9.18
2017-09-18T03:38:07.255Z,9.26
2017-09-18T03:38:47.945Z,9.14
2017-09-18T03:39:28.569Z,9.15
2017-09-18T03:40:10.180Z,9.13
2017-09-18T03:40:50.761Z,9.21
2017-09-18T03:41:31.340Z,9.17
2017-09-18T03:42:11.927Z,9.18
2017-09-18T03:42:52.588Z,9.23
2017-09-18T03:43:33.140Z,9.21
2017-09-18T03:44:13.720Z,9.21
2017-09-18T03:44:54.311Z,9.26
2017-09-18T03:45:34.872Z,9.14
2017-09-18T03:46:15.510Z,9.17
2017-09-18T03:46:56.078Z,9.18
2017-09-18T03:47:36.702Z,9.13
2017-09-18T03:48:17.430Z,9.14
2017-09-18T03:48:58.046Z,9.26
2017-09-18T03:49:38.628Z,9.17
2017-09-18T03:50:21.100Z,9.32
2017-09-18T03:51:02.349Z,9.31
2017-09-18T03:51:42.935Z,9.38
2017-09-18T03:52:23.508Z,9.4
2017-09-18T03:53:04.094Z,9.42
2017-09-18T03:53:44.660Z,9.43
2017-09-18T03:54:25.243Z,9.29
2017-09-18T03:55:05.833Z,9.36
2017-09-18T03:55:46.410Z,9.29
2017-09-18T03:56:26.991Z,9.29
2017-09-18T03:57:07.566Z,9.32
2017-09-18T03:57:48.143Z,9.29
2017-09-18T03:58:28.713Z,9.31
2017-09-18T03:59:09.282Z,9.33
2017-09-18T03:59:49.873Z,9.31
2017-09-18T04:00:30.444Z,9.33
2017-09-18T04:01:11.019Z,9.18
2017-09-18T04:01:51.602Z,9.24
2017-09-18T04:02:32.170Z,9.23
2017-09-18T04:03:12.747Z,9.21
2017-09-18T04:03:53.330Z,9.21
2017-09-18T04:04:33.909Z,9.21
2017-09-18T04:05:14.488Z,9.21
2017-09-18T04:05:55.066Z,9.31
2017-09-18T04:06:35.668Z,9.18
2017-09-18T04:07:16.218Z,9.24
2017-09-18T04:07:56.801Z,9.36
2017-09-18T04:08:37.363Z,9.21
2017-09-18T04:09:17.935Z,9.36
2017-09-18T04:09:58.513Z,9.18
2017-09-18T04:10:39.134Z,9.23
2017-09-18T04:11:19.711Z,9.21
2017-09-18T04:12:00.292Z,9.17
2017-09-18T04:12:40.861Z,9.15
2017-09-18T04:13:21.438Z,9.2
2017-09-18T04:14:02.012Z,9.15
2017-09-18T04:14:42.588Z,9.2
2017-09-18T04:15:23.159Z,9.17
2017-09-18T04:16:03.747Z,9.17
2017-09-18T04:16:44.326Z,9.29
2017-09-18T04:17:24.908Z,9.32
2017-09-18T04:18:05.483Z,9.17
2017-09-18T04:18:46.055Z,9.2
2017-09-18T04:19:26.624Z,9.18
2017-09-18T04:20:07.206Z,9.18
2017-09-18T04:20:47.807Z,9.14
2017-09-18T04:21:28.386Z,9.11
2017-09-18T04:22:08.964Z,8.99
2017-09-18T04:22:49.548Z,9.13
2017-09-18T04:23:30.127Z,8.99
2017-09-18T04:24:10.712Z,8.98
2017-09-18T04:24:51.291Z,8.99
2017-09-18T04:25:31.867Z,8.98
2017-09-18T04:26:12.443Z,8.98
2017-09-18T04:26:53.028Z,8.94
2017-09-18T04:27:33.604Z,8.95
2017-09-18T04:28:14.189Z,8.96
2017-09-18T04:28:54.770Z,8.99
2017-09-18T04:29:35.342Z,8.92
2017-09-18T04:30:15.923Z,8.94
2017-09-18T04:30:56.503Z,8.99
2017-09-18T04:31:37.085Z,8.91
2017-09-18T04:32:17.657Z,8.98
2017-09-18T04:32:58.228Z,8.96
2017-09-18T04:33:38.809Z,8.96
2017-09-18T04:34:19.392Z,8.99
2017-09-18T04:34:59.975Z,9.01
2017-09-18T04:35:40.554Z,9.02
2017-09-18T04:36:21.135Z,9.02
2017-09-18T04:37:01.707Z,9.13
2017-09-18T04:37:42.280Z,9.13
2017-09-18T04:38:22.850Z,9.23
2017-09-18T04:39:03.427Z,9.21
2017-09-18T04:39:44.006Z,9.17
2017-09-18T04:40:24.581Z,9.21
2017-09-18T04:41:05.161Z,9.14
2017-09-18T04:41:45.747Z,9.2
2017-09-18T04:42:26.333Z,9.21
2017-09-18T04:43:06.905Z,9.29
2017-09-18T04:43:47.482Z,9.28
2017-09-18T04:44:28.065Z,9.33
2017-09-18T04:45:08.633Z,9.35
2017-09-18T04:45:54.225Z,9.28
2017-09-18T04:46:34.807Z,9.39
2017-09-18T04:47:15.387Z,9.36
2017-09-18T04:47:55.968Z,9.38
2017-09-18T04:48:36.549Z,9.42
2017-09-18T04:49:17.129Z,9.43
2017-09-18T04:49:57.713Z,9.46
2017-09-18T04:50:38.304Z,9.46
2017-09-18T04:51:18.882Z,9.46
2017-09-18T04:51:59.471Z,9.42
2017-09-18T04:52:40.028Z,9.4
2017-09-18T04:53:20.619Z,9.4
2017-09-18T04:54:01.205Z,9.4
2017-09-18T04:54:41.780Z,9.32
2017-09-18T04:55:22.356Z,9.29
2017-09-18T04:56:02.942Z,9.31
2017-09-18T04:56:43.524Z,9.29
2017-09-18T04:57:24.102Z,9.4
2017-09-18T04:58:04.687Z,9.39
2017-09-18T04:58:45.247Z,9.4
2017-09-18T04:59:25.821Z,9.39
2017-09-18T05:00:06.411Z,9.38
2017-09-18T05:00:46.982Z,9.4
2017-09-18T05:01:27.572Z,9.39
2017-09-18T05:02:08.148Z,9.42
2017-09-18T05:02:48.733Z,9.46
2017-09-18T05:03:29.312Z,9.38
2017-09-18T05:04:09.909Z,9.42
2017-09-18T05:04:50.467Z,9.47
2017-09-18T05:05:31.042Z,9.43
2017-09-18T05:06:11.621Z,9.42
2017-09-18T05:06:52.204Z,9.39
2017-09-18T05:07:32.788Z,9.47
2017-09-18T05:08:13.358Z,9.46
2017-09-18T05:08:53.929Z,9.47
2017-09-18T05:09:34.511Z,9.43
2017-09-18T05:10:15.096Z,9.38
2017-09-18T05:10:55.675Z,9.36
2017-09-18T05:11:36.260Z,9.42
2017-09-18T05:12:16.847Z,9.38
2017-09-18T05:14:09.474Z,9.42
2017-09-18T05:14:50.054Z,9.39
2017-09-18T05:15:30.636Z,9.42
2017-09-18T05:16:11.221Z,9.47
2017-09-18T05:16:51.788Z,9.47
2017-09-18T05:17:32.373Z,9.51
2017-09-18T05:18:12.951Z,9.53
2017-09-18T05:18:53.513Z,9.58
2017-09-18T05:19:34.090Z,9.48
2017-09-18T05:20:14.671Z,9.51
2017-09-18T05:20:55.258Z,9.57
2017-09-18T05:21:35.827Z,9.6
2017-09-18T05:22:16.406Z,9.6
2017-09-18T05:22:56.985Z,9.65
2017-09-18T05:23:37.555Z,9.65
2017-09-18T05:24:18.140Z,9.64
2017-09-18T05:24:58.719Z,9.75
2017-09-18T05:25:39.301Z,9.74
2017-09-18T05:26:19.887Z,9.78
2017-09-18T05:27:00.474Z,9.68
2017-09-18T05:27:41.061Z,9.75
2017-09-18T05:28:21.638Z,9.74
2017-09-18T05:29:02.217Z,9.71
2017-09-18T05:29:42.797Z,9.72
2017-09-18T05:30:23.381Z,9.75
2017-09-18T05:31:03.943Z,9.74
2017-09-18T05:31:44.511Z,9.76
2017-09-18T05:32:25.098Z,9.71
2017-09-18T05:33:05.678Z,9.71
2017-09-18T05:33:46.263Z,9.74
2017-09-18T05:34:26.827Z,9.69
2017-09-18T05:35:07.406Z,9.76
2017-09-18T05:35:47.988Z,9.74
2017-09-18T05:36:28.566Z,9.9
2017-09-18T05:37:09.147Z,9.91
2017-09-18T05:37:49.728Z,9.94
2017-09-18T05:38:30.302Z,9.9
2017-09-18T05:39:10.879Z,9.97
2017-09-18T05:39:51.457Z,10.04
2017-09-18T05:40:32.035Z,9.9
2017-09-18T05:41:12.612Z,10.04
2017-09-18T05:41:53.188Z,10.09
2017-09-18T05:42:33.773Z,10.18
2017-09-18T05:43:14.351Z,10.2
2017-09-18T05:43:54.929Z,10.18
2017-09-18T05:44:35.508Z,10.27
2017-09-18T05:45:16.099Z,10.32
2017-09-18T05:45:56.673Z,10.32
2017-09-18T05:46:37.255Z,10.29
2017-09-18T05:47:17.835Z,10.36
2017-09-18T05:47:58.416Z,10.32
2017-09-18T05:48:38.988Z,10.32
2017-09-18T05:49:19.566Z,10.32
2017-09-18T05:50:00.155Z,10.26
2017-09-18T05:50:40.736Z,10.3
2017-09-18T05:51:21.331Z,10.4
2017-09-18T05:52:01.903Z,10.45
2017-09-18T05:52:42.458Z,10.7
2017-09-18T05:53:23.048Z,10.81
2017-09-18T05:54:03.629Z,10.94
2017-09-18T05:54:58.851Z,11.1
2017-09-18T05:55:39.428Z,11.21
2017-09-18T05:56:20.009Z,11.22
2017-09-18T05:57:00.599Z,11.25
2017-09-18T05:57:41.174Z,11.43
2017-09-18T05:58:21.756Z,11.42
2017-09-18T05:59:02.334Z,11.39
2017-09-18T05:59:42.916Z,11.46
2017-09-18T06:00:23.492Z,11.54
2017-09-18T06:01:04.073Z,11.51
2017-09-18T06:01:44.659Z,11.55
2017-09-18T06:02:25.237Z,11.55
2017-09-18T06:04:02.603Z,11.69
2017-09-18T06:04:43.173Z,11.72
2017-09-18T06:05:23.757Z,11.72
2017-09-18T06:06:04.337Z,11.7
2017-09-18T06:06:44.917Z,11.79
2017-09-18T06:07:25.490Z,11.79
2017-09-18T06:08:06.070Z,11.86
2017-09-18T06:08:46.650Z,11.88
2017-09-18T06:09:27.228Z,11.85
2017-09-18T06:10:07.809Z,11.91
2017-09-18T06:10:48.391Z,11.95
2017-09-18T06:11:28.960Z,11.99
2017-09-18T06:12:09.544Z,11.96
2017-09-18T06:12:50.131Z,12.01
2017-09-18T06:13:30.699Z,12.02
2017-09-18T06:14:11.287Z,12.02
2017-09-18T06:14:51.869Z,12.01
2017-09-18T06:15:32.444Z,11.96
2017-09-18T06:16:13.031Z,12.04
2017-09-18T06:16:53.614Z,12.04
2017-09-18T06:17:34.197Z,12.04
2017-09-18T06:18:14.776Z,12.13
2017-09-18T06:18:55.351Z,12.23
2017-09-18T06:19:35.934Z,12.41
2017-09-18T06:20:16.514Z,12.39
2017-09-18T06:20:57.103Z,12.28
2017-09-18T06:21:37.675Z,12.35
2017-09-18T06:22:18.252Z,12.35
2017-09-18T06:22:58.833Z,12.47
2017-09-18T06:23:39.406Z,12.46
2017-09-18T06:24:19.983Z,12.56
2017-09-18T06:25:00.566Z,12.64
2017-09-18T06:25:41.151Z,12.71
2017-09-18T06:26:21.731Z,12.68
2017-09-18T06:27:02.334Z,12.67
2017-09-18T06:27:42.901Z,12.65
2017-09-18T06:28:23.486Z,12.71
2017-09-18T06:29:04.069Z,12.67
2017-09-18T06:29:44.647Z,12.7
2017-09-18T06:30:25.226Z,12.78
2017-09-18T06:31:05.802Z,12.83
2017-09-18T06:31:46.375Z,12.82
2017-09-18T06:32:26.955Z,12.93
2017-09-18T06:33:07.543Z,12.87
2017-09-18T06:33:48.123Z,13.07
2017-09-18T06:34:28.704Z,13.28
2017-09-18T06:35:09.283Z,13.38
2017-09-18T06:35:49.861Z,13.3
2017-09-18T06:36:30.442Z,13.32
2017-09-18T06:37:11.029Z,13.42
2017-09-18T06:37:51.604Z,13.36
2017-09-18T06:38:32.182Z,13.49
2017-09-18T06:39:12.768Z,13.57
2017-09-18T06:39:53.344Z,13.77
2017-09-18T06:40:33.923Z,13.92
2017-09-18T06:41:14.505Z,14.02
2017-09-18T06:41:55.074Z,14.14
2017-09-18T06:42:35.659Z,14.24
2017-09-18T06:43:16.232Z,14.37
2017-09-18T06:43:56.812Z,14.39
2017-09-18T06:44:37.396Z,14.21
2017-09-18T06:45:17.973Z,14.1
2017-09-18T06:45:58.558Z,13.99
2017-09-18T06:46:39.142Z,14
2017-09-18T06:47:19.724Z,13.97
2017-09-18T06:48:00.310Z,13.89
2017-09-18T06:48:40.883Z,13.91
2017-09-18T06:49:21.452Z,13.99
2017-09-18T06:50:02.027Z,14.17
2017-09-18T06:50:42.608Z,14.25
2017-09-18T06:51:23.193Z,14.55
2017-09-18T06:52:03.776Z,14.73
2017-09-18T06:52:44.354Z,14.78
2017-09-18T06:53:24.928Z,14.84
2017-09-18T06:54:05.512Z,14.91
2017-09-18T06:54:46.096Z,14.78
2017-09-18T06:55:26.687Z,14.7
2017-09-18T06:56:07.267Z,14.68
2017-09-18T06:56:47.849Z,14.55
2017-09-18T06:57:28.438Z,14.5
2017-09-18T06:58:09.011Z,14.28
2017-09-18T06:58:49.591Z,14.03
2017-09-18T06:59:30.172Z,13.89
2017-09-18T07:00:10.762Z,13.96
2017-09-18T07:00:51.335Z,13.82
2017-09-18T07:01:31.918Z,13.69
2017-09-18T07:02:12.485Z,13.54
2017-09-18T07:02:53.070Z,13.42
2017-09-18T07:03:33.660Z,13.3
2017-09-18T07:04:14.242Z,13.11
2017-09-18T07:04:54.824Z,13.01
2017-09-18T07:05:35.406Z,12.87
2017-09-18T07:06:15.997Z,12.92
2017-09-18T07:06:56.579Z,12.85
2017-09-18T07:07:37.165Z,12.75
2017-09-18T07:08:17.751Z,12.82
2017-09-18T07:08:58.333Z,12.82
2017-09-18T07:09:38.917Z,12.67
2017-09-18T07:10:19.497Z,12.72
2017-09-18T07:11:00.080Z,12.67
2017-09-18T07:11:40.660Z,12.68
2017-09-18T07:12:21.247Z,12.62
2017-09-18T07:13:01.826Z,12.65
2017-09-18T07:13:42.413Z,12.62
2017-09-18T07:14:22.996Z,12.64
2017-09-18T07:15:03.587Z,12.45
2017-09-18T07:15:44.168Z,12.46
2017-09-18T07:16:24.741Z,12.35
2017-09-18T07:17:05.317Z,12.28
2017-09-18T07:17:45.898Z,12.2
2017-09-18T07:18:26.477Z,12.23
2017-09-18T07:19:07.059Z,12.32
2017-09-18T07:19:47.642Z,12.31
2017-09-18T07:20:28.231Z,12.46
2017-09-18T07:21:08.793Z,12.53
2017-09-18T07:21:49.368Z,12.56
2017-09-18T07:22:29.954Z,12.53
2017-09-18T07:23:10.533Z,12.6
2017-09-18T07:23:51.112Z,12.52
2017-09-18T07:24:31.704Z,12.56
2017-09-18T07:25:12.284Z,12.49
2017-09-18T07:25:52.864Z,12.45
2017-09-18T07:26:33.438Z,12.35
2017-09-18T07:27:14.010Z,12.34
2017-09-18T07:27:54.589Z,12.27
2017-09-18T07:28:35.171Z,12.23
2017-09-18T07:29:15.752Z,12.38
2017-09-18T07:29:56.321Z,12.41
2017-09-18T07:30:36.901Z,12.56
2017-09-18T07:31:17.486Z,12.67
2017-09-18T07:31:58.077Z,12.79
2017-09-18T07:32:38.659Z,12.75
2017-09-18T07:33:19.244Z,12.77
2017-09-18T07:33:59.829Z,12.89
2017-09-18T07:34:40.407Z,12.95
2017-09-18T07:35:20.985Z,12.97
2017-09-18T07:36:01.562Z,13
2017-09-18T07:36:42.150Z,12.96
2017-09-18T07:37:22.731Z,12.89
2017-09-18T07:38:03.313Z,12.71
2017-09-18T07:38:43.897Z,12.77
2017-09-18T07:39:24.482Z,12.7
2017-09-18T07:40:05.060Z,12.5
2017-09-18T07:40:45.655Z,12.42
2017-09-18T07:41:26.223Z,12.53
2017-09-18T07:42:06.806Z,12.42
2017-09-18T07:42:47.387Z,12.59
2017-09-18T07:43:27.970Z,12.57
2017-09-18T07:44:08.545Z,12.46
2017-09-18T07:44:49.125Z,12.38
2017-09-18T07:45:29.721Z,12.24
2017-09-18T07:46:10.291Z,12.34
2017-09-18T07:46:50.873Z,12.38
2017-09-18T07:47:31.459Z,12.35
2017-09-18T07:48:12.047Z,12.16
2017-09-18T07:48:52.636Z,12.31
2017-09-18T07:49:33.220Z,12.38
2017-09-18T07:50:13.794Z,12.38
2017-09-18T07:50:54.366Z,12.37
2017-09-18T07:51:34.948Z,12.39
2017-09-18T07:52:15.526Z,12.46
2017-09-18T07:52:56.107Z,12.42
2017-09-18T07:53:36.685Z,12.57
2017-09-18T07:54:17.270Z,12.5
2017-09-18T07:54:57.857Z,12.59
2017-09-18T07:55:38.434Z,12.57
2017-09-18T07:56:19.018Z,12.56
2017-09-18T07:56:59.603Z,12.37
2017-09-18T07:57:40.185Z,12.39
2017-09-18T07:58:20.768Z,12.5
2017-09-18T07:59:01.353Z,12.41
2017-09-18T07:59:41.928Z,12.42
2017-09-18T08:00:22.514Z,12.38
2017-09-18T08:01:03.095Z,12.37
2017-09-18T08:01:43.677Z,12.45
2017-09-18T08:02:24.259Z,12.47
2017-09-18T08:03:04.843Z,12.57
2017-09-18T08:03:45.417Z,12.7
2017-09-18T08:04:25.986Z,12.68
2017-09-18T08:05:06.559Z,12.67
2017-09-18T08:05:47.156Z,12.6
2017-09-18T08:06:27.731Z,12.45
2017-09-18T08:07:08.309Z,12.38
2017-09-18T08:07:48.896Z,12.38
2017-09-18T08:08:29.469Z,12.28
2017-09-18T08:09:10.050Z,12.35
2017-09-18T08:09:50.628Z,12.32
2017-09-18T08:10:31.209Z,12.37
2017-09-18T08:11:11.791Z,12.41
2017-09-18T08:11:52.370Z,12.42
2017-09-18T08:12:32.951Z,12.53
2017-09-18T08:13:13.540Z,12.59
2017-09-18T08:13:54.109Z,12.65
2017-09-18T08:14:34.688Z,12.68
2017-09-18T08:15:15.262Z,12.64
2017-09-18T08:15:55.850Z,12.74
2017-09-18T08:16:36.430Z,12.72
2017-09-18T08:17:17.011Z,12.68
2017-09-18T08:17:57.593Z,12.67
2017-09-18T08:18:38.167Z,12.72
2017-09-18T08:19:18.738Z,12.74
2017-09-18T08:19:59.309Z,12.83
2017-09-18T08:20:39.895Z,12.83
2017-09-18T08:21:20.461Z,12.85
2017-09-18T08:22:01.055Z,12.96
2017-09-18T08:22:41.633Z,13.26
2017-09-18T08:23:22.223Z,13.25
2017-09-18T08:24:02.800Z,13.46
2017-09-18T08:24:43.378Z,13.46
2017-09-18T08:25:23.961Z,13.7
2017-09-18T08:26:04.543Z,13.91
2017-09-18T08:26:45.122Z,14.04
2017-09-18T08:27:25.700Z,14.09
2017-09-18T08:28:06.286Z,13.97
2017-09-18T08:28:46.869Z,14.02
2017-09-18T08:30:44.600Z,13.81
2017-09-18T08:31:25.180Z,13.7
2017-09-18T08:32:05.761Z,13.55
2017-09-18T08:32:46.340Z,13.54
2017-09-18T08:33:26.926Z,13.51
2017-09-18T08:34:07.507Z,13.26
2017-09-18T08:34:48.094Z,13.19
2017-09-18T08:35:28.670Z,13.12
2017-09-18T08:36:09.252Z,12.97
2017-09-18T08:36:49.836Z,12.87
2017-09-18T08:37:30.419Z,12.89
2017-09-18T08:38:11.006Z,12.93
2017-09-18T08:38:51.593Z,12.87
2017-09-18T08:39:32.165Z,13.01
2017-09-18T08:40:12.746Z,12.97
2017-09-18T08:40:53.328Z,13.32
2017-09-18T08:41:33.911Z,13.64
2017-09-18T08:42:14.488Z,14
2017-09-18T08:42:55.066Z,14.32
2017-09-18T08:43:35.655Z,14.73
2017-09-18T08:44:16.236Z,14.98
2017-09-18T08:44:56.816Z,15.02
2017-09-18T08:45:37.394Z,14.99
2017-09-18T08:46:17.970Z,15.07
2017-09-18T08:46:58.543Z,15.34
2017-09-18T08:47:39.121Z,15.46
2017-09-18T08:48:19.704Z,15.74
2017-09-18T08:49:00.279Z,15.71
2017-09-18T08:49:40.857Z,15.83
2017-09-18T08:50:21.439Z,15.9
2017-09-18T08:51:02.005Z,15.87
2017-09-18T08:51:42.578Z,15.68
2017-09-18T08:52:23.157Z,15.67
2017-09-18T08:53:03.741Z,15.65
2017-09-18T08:53:44.325Z,15.94
2017-09-18T08:54:24.913Z,16.09
2017-09-18T08:55:05.490Z,16.3
2017-09-18T08:55:46.067Z,16.25
2017-09-18T08:56:26.656Z,16.12
2017-09-18T08:57:07.226Z,15.83
2017-09-18T08:57:47.812Z,15.76
2017-09-18T08:58:28.396Z,15.69
2017-09-18T08:59:08.983Z,15.78
2017-09-18T08:59:49.569Z,15.62
2017-09-18T09:00:30.153Z,15.16
2017-09-18T09:01:10.741Z,15.28
2017-09-18T09:01:51.332Z,15.44
2017-09-18T09:02:31.913Z,15.6
2017-09-18T09:03:12.496Z,15.71
2017-09-18T09:03:53.074Z,15.74
2017-09-18T09:04:33.660Z,15.76
2017-09-18T09:05:14.240Z,15.74
2017-09-18T09:05:54.819Z,15.74
2017-09-18T09:06:35.403Z,15.69
2017-09-18T09:07:15.986Z,15.96
2017-09-18T09:07:56.574Z,16.02
2017-09-18T09:08:37.160Z,16.41
2017-09-18T09:09:17.743Z,16.45
2017-09-18T09:09:58.334Z,16.7
2017-09-18T09:10:38.915Z,16.76
2017-09-18T09:11:19.502Z,16.71
2017-09-18T09:12:00.087Z,17.06
2017-09-18T09:12:40.656Z,17.23
2017-09-18T09:13:21.232Z,17.36
2017-09-18T09:14:01.812Z,17.55
2017-09-18T09:14:42.393Z,17.62
2017-09-18T09:15:22.976Z,17.38
2017-09-18T09:16:03.558Z,17.23
2017-09-18T09:16:44.141Z,17.16
2017-09-18T09:17:24.720Z,17.54
2017-09-18T09:18:05.309Z,17.56
2017-09-18T09:18:45.895Z,17.33
2017-09-18T09:19:26.485Z,16.91
2017-09-18T09:20:07.073Z,16.61
2017-09-18T09:20:47.656Z,16.15
2017-09-18T09:21:28.241Z,16.08
2017-09-18T09:22:08.824Z,16.07
2017-09-18T09:22:49.425Z,16.07
2017-09-18T09:23:30.006Z,16.28
2017-09-18T09:24:10.592Z,15.93
2017-09-18T09:24:51.176Z,16.04
2017-09-18T09:25:31.751Z,15.74
2017-09-18T09:26:12.339Z,15.71
2017-09-18T09:26:52.937Z,15.53
2017-09-18T09:27:33.508Z,15.36
2017-09-18T09:28:14.096Z,15.25
2017-09-18T09:28:54.683Z,15.07
2017-09-18T09:29:35.262Z,14.84
2017-09-18T09:30:15.842Z,14.69
2017-09-18T09:30:56.416Z,14.6
2017-09-18T09:31:36.998Z,14.43
2017-09-18T09:32:17.606Z,14.27
2017-09-18T09:32:58.158Z,14.22
2017-09-18T09:33:38.742Z,14.17
2017-09-18T09:34:19.320Z,14.1
2017-09-18T09:34:59.913Z,14.24
2017-09-18T09:35:40.488Z,14.29
2017-09-18T09:36:21.076Z,14.09
2017-09-18T09:37:01.659Z,14.24
2017-09-18T09:37:42.244Z,14.27
2017-09-18T09:38:22.827Z,14.18
2017-09-18T09:39:03.423Z,14.1
2017-09-18T09:39:44.014Z,14.1
2017-09-18T09:40:24.589Z,14.04